Race Results for
Maillot Jaune Road Race
Fenton, MI
(Event Information)
View By:
Road Race on 07/23/2011

Note: Ranking points are NOT upgrade points. An explanation of ranking points can be found here.


Men - Cat 5

 Place Points NameCity, StateTime USAC #BibTeam
1 Nikita Bondar   East Lansing, MI1:10:54.90 349300  528 Team Toms
2 Jeffery Smith   Temperance, MI1:10:55.69 273936  516 Maumee Valley
3 Jay Dore   Lansing, MI1:10:56.44 357584  541 None
4 Patrick Burnett   1:10:56.51  511 unattached
5 Paul Gregory   Greensboro, NC1:10:57.78 311269  538 Michigan State University
6 Kyle Schroeder   Ann Arbor, MI1:10:58.55 293897  539 unattached
7 Edward Johns   Houghton Lake, MI1:11:01.87 276580  509 Tri City Cyclist
8 David Lesko   Brighton, MI1:11:02.04 298508  523 none
9 John Laverty   Bay City, MI1:11:05.50 349382  524 Tri City Cyclists
10 Eric Mitchell   Grosse Pointe Park, MI1:11:11.05 283441  536 
11 Robert Miller   Saginaw, MI1:11:20.50 353624  526 Saginaw Township
12 Andrew Wisniewski   South Lyon, MI1:11:31.84 310167  501 Blood Sweat Gears
13 Mike Weiss   Oxford, MI1:14:10.27 344344  519 O2
14 Robert Ballinger   Seattle, WA1:14:11.78 44029  534 No Affiliation
15 Joel Bush   Grand Rapids, MI1:14:52.54 321060  531 Unattached
16 Jason Keith   South Lyon, MI1:14:54.81 357559  507 Team Speranza
17 Jeffrey Curley   Commerce Township, MI1:15:02.56 299686  515 Unattached
18 Matt Price   Livonia, MI1:15:28.38 357374  535 Flying Rhino
19 Jim Boskee   Lapeer, MI1:15:28.40 305991  527 flying Rhinos
20 Stefan Kroenung   Bloomfield Hills, MI1:17:10.61 355590  506 
21 Mark Hughes   Sarasota, FL1:17:28.22 296403  529 FRCC
22 Alexander Gaulin   White Lake, MI1:17:28.63 311408  508 Flying Rhino Cycling Club
23 Wayne Seaver   Midland, MI1:18:11.10 354558  510 Tri City Cyclist
24 James Zayac   Holly, MI1:18:11.73 361464  533 n/a
25 William Walter   Milford, MI1:18:17.75 336210  518 Flying Rhino
26 Brad May   Bloomfield Hills, MI1:18:17.83 342100  517 KLM/COLD STONE
27 William Gray   Boulder, CO1:18:19.23 356148  525 Wolverine Sports Club
28 Mark Alexander   1:18:19.27  513 Genese Wanderers
29 Hani Habra   Troy, MI1:18:19.58 339682  537 University Of Michigan
30 Michael Schreiber   Birmingham, MI1:18:21.75 322486  522 Wolverine Sports Club
31 Paul Skorupskas   Ferndale, MI1:18:52.35 353196  521 Cadieux/O2
32 Scott Patterson   Huntington Woods, MI1:21:03.20 226651  520 Unattached
33 Kyle Wallace   East Lansing, MI1:21:38.40 291619  542 
34 Nigel Mullis   Rochester, MI1:23:26.73 333396  532 Cadieux/O2
35 William Alton   Traverse City, MI1:23:52.76 357300  504 GVSU
36 William Ruelle   Troy, MI1:25:52.18 262480  514 Flying Rhinos
37 Brian Bauer   Waterford, MI1:29:24.05 327444  543 Cycle Therapy
38 Gervalo Jones   1:29:25.72  502 
39 Christopher Kiesling   Eastpointe, MI1:30:27.54 356860  530 None
40 Charles Timison   1:46:20.78  503 
41 Jim O'Connell   Miami, FL1:54:11.88 277877  512 AAVC
42 Anthony Bastuk   Grand Blanc, MI 304279  505 RBS Cycling Team

Men - Cat 4

 Place Points NameCity, StateTime USAC #BibTeam
1 Brent Goetz   Toledo, OH1:39:18.33 336412  404 Maumee Valley Wheelmen
2 Benjamin Rollenhagen   Lansing, MI1:39:18.36 240802  427 Tri city cyclists
3 Colin Vis   East Grand Rapids Mi1:39:18.46 204068  423 East Hills Velo
4 Keigo Higaki   Canton, MI1:39:18.50 304287  416 RACING GREYHOUNDS
5 Christopher Vitton   Rockford, MI1:39:18.80 302801  409 Speed Merchants
6 jared preston   North Royalton, OH1:39:18.98 319528  422 Fuji cycling
7 Ryan Kenny   Henderson, NV1:39:19.14 284331  425 Tri City Cyclists
8 James LeBlanc   Royal Oak, MI1:39:19.14 227126  438 NONE
9 Colin Hebert   Brighton, MI1:39:19.15 293700  420 Ann Arbor Velo Club
10 Aaron Rieder   Westland, MI1:39:19.27 290810  415 RACING GREYHOUNDS
11 Joe Thomas   Portage, MI1:39:19.35 353598  412 CMS Racing
12 Paul Nederveld   Hudsonville, MI1:39:19.44 255567  426 Fusion IT
13 John Gracely   Ann Arbor, MI1:39:19.59 309574  418 University Of Michigan
14 Ernie Riley   Midland, MI1:39:19.60 305656  401 Tri-City Cyclists
15 Michael Gorkowski   Grand Rapids, MI1:39:19.68 255426  406 Fusion IT
16 Erik Krueger   Clawson, MI1:39:20.24 308256  411 RACING GREYHOUNDS
17 Michael Bliss   Royal Oak, MI1:39:20.52 262184  429 Wolverines/ACF
18 Mike Okma   Traverse City, MI1:39:20.82 166121  436 Hagerty
19 Steven Weckle   Midland, MI1:39:21.36 227728  403 Tri-City Cyclists
20 Larry Brownell   Traverse City, MI1:39:32.21 5190  435 Hagerty
21 Greg Johnson   Fenton, MI1:39:33.34 211378  440 Flying Rhino Cycling Club
22 Dennis Hamel   Comstock Park, MI1:39:44.34 276322  417 Rapid Wheelman
23 Terry Bishop   Stcharles, MI1:39:52.22 291871  405 Tri-City Cyclists
24 Andrew Cowan   Bay City, MI1:40:22.09 296448  434 Tri City Cyclist
25 Craig Newell   Williamston Mi1:41:02.08 308443  419 Unattached
26 Mark Caffyn   Ortonville, MI1:48:33.47 252670  437 MPI-Mainstreet
27 Neil Peruski   Oxford, MI1:49:38.71 317926  421 MPI-Main Street Kuhnhenn Racing
28 James Barrett   Belleville, MI1:58:10.44 248958  430 Spokane Rocket Velo
29 Ken Misch   Carmel, IN1:58:18.91 251397  402 
30 Randulph Arellano   Dearborn, MI1:58:45.04 254387  441 MCG/Trails-Edge.com
31 Joseph Miessner   Ann Arbor, MI2:03:08.49 309818  428 Ann Arbor Velo Club

Men - Cat 3

 Place Points NameCity, StateTime USAC #BibTeam
1 Ronald Catlin   Ray Township, MI2:23:09.44 296981  325 RBS Trek
2 Adam Kaye   Ann Arbor, MI2:23:09.76 290612  314 unattached
3 Benjamin Cox   Fenton, MI2:23:09.87 258444  303 Team Giant - MI
4 Patrick Robb   Royal Oak, MI2:23:10.30 48371  309 WOLVERINE/ACF
5 Justin Perry   Grand Haven, MI2:23:10.39 295935  323 SCTNow.org/Faith Hospice
6 Adam Sulkes   Westland, MI2:23:10.58 191897  317 RACING GREYHOUNDS
7 Blaine Benson   Ann Arbor, MI2:23:10.59 268471  310 Black Line Track Team
8 joshua neider   Northville, MI2:23:10.59 277699  318 MCG Trails Edge
9 Ryan Rodd   Birmingham, MI2:23:10.62 310993  324 WOLVERINE/ACF
10 Kyle Stange   Millington, MI2:23:10.68 222632  313 Cyclefit Sports Club
11 Evan Boese   Richland, MI2:23:10.68 300804  301 Priorirt Health Cycling Team
12 Trae Bott   Blanchard, MI2:23:10.94 273675  321 Ventus Cycling
13 Douglas Burcicki   Canton, MI2:23:11.02 228512  315 Cadieux/Team O2
14 Andy Fedewa   Clarkston, MI2:23:11.23 262182  302 Flying Rhinos Cycling Club
15 Jerry Gase II   W. Bloomfield, MI2:23:11.41 269005  328 Team O2/Cadieux
16 Brian Wachlarz   Royal Oak, MI2:23:11.59 259572  305 WOLVERINE/ACF
17 David DeJong   Grand Rapids, MI2:23:11.99 178706  322 Bissell/ABG
18 anthony prentice   Allendale 2:23:12.50 292144  327 priority health
20 Dale Carley   Alto, MI2:23:29.89 237745  320 FUSION IT
21 David Boboltz   Kalamazoo, MI2:23:45.54 120317  308 East Hills Velo

Men - Pro/Cat 1/2

 Place Points NameCity, StateTime USAC #BibTeam
1 Kirk Albers   Upper Arlington, OH2:37:24.22 1283  27 Panther Cycling
2 Jason Swiatlowski   Grand Rapids, MI2:37:24.25 34815  20 Bissell/ABG
3 Christopher Fisher   Leland Mi2:37:24.59 11699  Priority Health Cycling Team
4 Sven Baumann   Lake Orion, MI2:37:24.68 378155  16 BMC Actionline
5 Gregory Christian (1 - Cat1)   St Simons Is Ga2:37:25.60 186412  11 Panther
6 Brian Kozeliski   Bloomfield Hills, MI2:37:26.30 156235  22 Wolverine Sports Club
7 Derek Graham (2 - Cat1)   Cedar, MI2:37:34.82 102695  19 BISSELL/ABG
8 Mac Brennan (3 - Cat1)   East Jordan, MI2:37:34.85 243416  23 Panther p/b Competitive Cyclist
9 Tim Finkel (1 - Cat2)   Shelby Twp., MI2:37:35.06 216738  WOLVERINE/ACFSTORES.COM
10 Adam York (4 - Cat1)   Okemos Mi2:37:35.32 210584  28 MCG p/b Trails-Edge.com
11 Tom Burke   Grand Rapids, MI2:37:35.47 179205  Lathrup Industries/Giant Bicycl
12 Alan Antonuk   Santa Monica, CA2:37:35.52 200093  26 Cleveland Clinic Sports Health/
13 Benjamin Whitehead   Belmont, MI2:37:35.65 183938  18 Bissell Masters
14 Isaiah Wallake   Columbus, OH2:37:35.90 100343  31 National Engineering
15 Martin Vecchio (2 - Cat2)   Detroit, MI2:37:36.07 289623  13 IVBP/Black Line
16 Jason Young   Augusta, MI2:37:36.21 159810  East Hills Velo
17 Robert Foshag   Monroe, MI2:37:36.38 88653  Lathrup Industries/Giant Bicycl
18 Vincent Roberge (5 - Cat1)   Redford, MI2:37:36.49 190250  Trail's Edge/ MCG
19 James Minnema   Jenison, MI2:37:36.71 258591  12 BISSELL/ABG Cycling
20 Daniel Lam (6 - Cat1)   Kalamazoo, MI2:37:37.23 239504  25 BISSELL/ABG
21 Collin Snyder   Plymouth, MI2:37:42.23 264396  14 MCG P/B Trails-edge.com
22 Cory Stange   Millington, MI2:43:49.23 260216  10 Bissell/ABG
23 Alex Vanias   Leroy, MI2:45:44.13 291766  Priority Health

Men - Master - 35-44

 Place Points NameCity, StateTime USAC #BibTeam
1 James Bruce   Novi, MI2:14:46.17 46453  224 Lathrup Industries/Giant Bicycl
2 Dan Korienek   Grandville, MI2:14:46.78 288930  202 Leadout Racing/Kentwood Cycling
3 David Fanslow   Ann Arbor, MI2:14:46.95 91272  208 AAVC
4 Mark Cahn   W Bloomfield, MI2:14:47.04 45148  220 Team O2
5 Christopher Boer   Grand Rapids, MI2:14:47.11 111940  209 east hills velo
6 Rick Snow   Macomb, MI2:14:47.12 56503  226 Team Giant - MI
7 Stefano Frascaroli (1 - Cat4)   Grosse Ile, MI2:14:47.13 315668  217 Grosse Ile Flyers
8 John Risk   Birmingham, MI2:14:47.24 98726  211 MPI- Main Street Racing team
9 Scott Howard (1 - Cat3)   Traverse City, MI2:14:47.38 264436  214 Hagerty
10 Robert Hockin   Flint, MI2:14:48.83 164410  221 Team Giant - MI
11 Anthony Hersberger (2 - Cat3)   Rockford, MI2:14:49.02 111939  225 Cyclefit
12 Jimmie Colflesh   Westland, MI2:14:49.15 7386  212 Mom & Pop Racing
13 Michael Dega   Farmington Hills, MI2:14:49.33 264316  218 CADIEUX BC / TEAM O2
14 Tim Barrons (3 - Cat3)   Traverse City, MI2:14:49.45 154530  316 Hagerty Cycling
15 Adam Naish (2 - Cat4)   Rochester, MI2:14:49.66 272572  216 RBS Trek MTB Team
16 Jimmy McMurray   Grand Rapids, MI2:14:49.78 166307  205 east hills velo
17 Robert Selle   Oakland Twp, MI2:14:49.83 102586  215 MPI-Khunhenn-MainSteet
18 Gregory Garrett   Hudsonville, MI2:14:50.13 57496  210 Speed Merchants
19 Mike VanHouten   Grand Rapids, MI2:14:56.73 239548  207 Bissell/ABG
20 Rich Stark   Ann Arbor, MI2:14:59.67 210510  213 Two Wheel Tango

Men - Master - 45-54

 Place Points NameCity, StateTime USAC #BibTeam
1 Alan Zoltowski   Canton, MI1:46:28.38 66373  606 Team Giant-Mi
2 Chris Johnson   Bloomfield Hills, MI1:46:28.66 17905  611 Flying Rhino Cycling Club
3 Scott Claes   W Bloomfield, MI1:46:28.70 106137  605 Swami's
4 Jonathan Morgan   Milford, MI1:46:28.77 25051  540 Team Giant
5 David Hietikko   Ada, MI1:46:29.18 16121  601 West Mich Coast Riders
6 Raymond Barbehenn   Ann Arbor, MI1:46:29.39 63608  607 AAVC
7 john meachum (1 - Cat3)   Ada, MI1:46:29.55 299075  602 Priority Health Cycling Team
8 Samuel George   Sparta, MI1:46:30.50 46693  615 Priority Health
9 Armando Vega (2 - Cat3)   Oxford, MI1:46:32.08 217039  614 MPI-MAIN STREET BICYCLES-KUHNNE
10 Mark Wolowiec   Davisburg, MI1:46:35.19 41215  603 Flying Rhino Cycling Club
11 Mark Freed (3 - Cat3)   Mount Pleasant, MI1:47:16.82 221861  612 RacerHeads Sports and Leisure
12 Mark Warner   Lansing, MI1:48:50.79 299805  608 west michigan coast riders
13 Peter O'Brien   Grand Rapids, MI1:51:09.20 345098  604 
14 Eric Phreed   Lansing, MI1:52:24.75 161040  609 west michigan coast riders
15 Kenneth O'Day   Ypsilanti, MI1:53:10.23 51473  613 Specialized

Men - Master - 55-99

 Place Points NameCity, StateTime USAC #BibTeam
1 Clifford Onthank   Traverse City, MI1:47:33.53 26766  703 Hagerty Racing
2 Fredrick Anderson   Okemos, MI1:50:50.64 1625  706 West Michigan Coast Riders
3 Larry Bohnsack   Brighton, MI1:50:52.06 40759  701 Wheels in Motion/AAVC
4 Lars Welton   Traverse City, MI1:51:56.36 37712  704 Hagerty
5 Loren Simons   Lansing Mi1:55:10.70 47936  702 Priority Health

Men - Junior - 13-14

 Place Points NameCity, StateTime USAC #BibTeam
1 Logan Zueger   Marquette, MI1:15:49.71 312890  802 KMK
2 Luke Mullis   Rochester Hills, MI1:16:51.86 296792  808 Wolverine Sports Club/ACFStores
3 Nathan Perkins   Fremont, MI1:25:24.32 306240  853 West Michigan Coast Riders
4 Levi Veltkamp   Coleman, MI1:25:24.63 281159  806 Tri City Cyclists
5 Owen Whalen   Ada, MI1:25:24.77 348150  851 Rapid Wheelmen

Men - Junior - 15-16

 Place Points NameCity, StateTime USAC #BibTeam
1 Seth Downes   Westphalia, MI1:15:46.68 353130  856 
2 Jacob Kovalchek   1:15:56.43  852 
3 Dylan Gonda   Portage, MI1:16:51.24 315864  854 CMS Race Team
6 Sean Brownell   Traverse City, MI1:25:26.40 311085  807 Hagerty

Men - Junior - 17-18

 Place Points NameCity, StateTime USAC #BibTeam
1 Brandon George   Sparta, MI1:15:46.90 322946  855 Priority Health

Men - Junior - 10-12

 Place Points NameCity, StateTime USAC #BibTeam
1 Keegan Korienek   Grandville, MI1:29:35.06 314012  850 Leadout Racing/Kentwood Cycling
2 Garrett Zueger   Marquette, MI1:37:40.86 349858  803 KMK

Women - Cat 4

 Place Points NameCity, StateTime USAC #BibTeam
1 Zoe Reeves   Grand Rapids, MI1:17:50.23 295290  906 Priority Health
2 Dori Leib   Farmington Hills, MI1:17:50.40 350220  907 Wolverine
3 Ellie Burke   Grand Rapids, MI1:17:51.16 342636  304 Real Women Tri
4 JoAnn Cranson   Lake Odessa, MI1:19:08.75 354324  908 
5 Josi Brynick   Lansing, MI1:20:28.87 356865  903 
6 Melissa Mabry   Westland, MI1:21:27.40 297273  904 Mom & Pop racing
7 Carla Murphy   1:22:52.99  901 Genesee Wanderers
8 Lori Hotchkin   Grand Rapids Mi1:26:14.71 333304  905 Real Women Tri
9 katelyn massaroni   Suttons Bayttons Bay, MI1:26:35.48 357298  902 GVSU

Women - Cat 3

 Place Points NameCity, StateTime USAC #BibTeam
1 Amanda Ryan   Farmington, MI1:49:56.99 286220  110 Team Giant of Michigan
2 Tiffany Bangma   Ada, MI1:49:58.03 289695  115 Miller Energy Racing pb GR Bicy
3 Laura Melendez   Grand Rapids, MI1:50:01.04 225973  119 Priority Health
4 Michele Howard   Traverse City, MI1:50:01.40 263518  111 Hagerty
5 barb beauregard   Traverse City, MI1:50:02.08 312276  116 Hagerty Cycling
6 Susan Shaw   Fenton, MI1:50:02.85 246829  103 Fusion IT
7 Lisa Thompson   Minneapolis, MN2:05:21.75 233402  104 unattached
8 Kristin Henderson   Grand Rapids, MI2:14:14.42 317492  117 Miller Energy Racing pb GR Bicy
9 Kimberly Thomas   Belmont, MI2:14:14.42 300926  307 FUSION IT

Women - Pro/Cat 1/2

 Place Points NameCity, StateTime USAC #BibTeam
1 Amy Stauffer   Lowell, MI1:49:56.25 151668  118 Priority Health Cycling Team
2 Jeannie Kuhajek   Crystal Lake, IL1:49:56.47 316598  112 ABD Cycling
3 Susan Vigland   Traverse City, MI1:49:56.53 263846  109 Hagerty
4 Lauri Brockmiller   Traverse City, MI1:49:57.18 275925  107 Hagerty
5 Alicia Trevino   Saginaw, MI1:49:57.25 278555  106 Tri City Cycling
6 Jessica Prinner   South Elgin, IL1:49:57.37 225342  114 ABD Cycling
7 Sarah Demerly   Berkley, MI1:49:57.42 293788  113 ABD Cycling
8 Leslie Gaines (1 - Cat2)   Okemos, MI1:49:57.75 182278  29 Priority Health Cycling Team
9 Mackenzie Woodring   Belmont, MI1:49:58.91 211079  108 Priority Health Cycling Team
10 Kathy Kirk (2 - Cat2)   Kalamazoo, MI1:50:01.16 208216  102 Priority Health Cycling Team

Women - Junior - 13-14

 Place Points NameCity, StateTime USAC #BibTeam
1 Danielle Mullis   Rochester, MI1:29:33.84 296790  801 Wolverine Sports Club/ACFStores
2 Katie Hamel   Comstock Park, MI1:32:40.89 294976  805 Rapid Wheelmen

Report missing or incorrect license numbers

Volkswagen
USACDFCUOREOSMOSpySierra NevadaBonk BreakerShimano
UCI USA Cycling is the official governing body for all disciplines of competitive cycling in the United States. The 501c3, membership-based organization aims both to achieve sustained success in international cycling competition and to grow competitive cycling in America while delivering an exceptional customer experience.
View Children's Online Privacy Protection Policy
US Olympic Committee